EW8218 Weather Reports


Display with metric or nautical units.
time (UTC)temp
F
wind
direction
speed
MPH
gust
MPH
rain 1hr
in
rain 24hr
in
rain mn
in
humidity
%
barometer
mb
20220122063329 26 52 0.0 0.0 0.00 0.00 0.00 47 1029.7
20220122061837 25 52 0.0 0.0 0.00 0.00 0.00 48 1029.7
20220122060327 25 52 0.0 0.0 0.00 0.00 0.00 47 1029.6
20220122053319 26 52 0.0 0.0 0.00 0.00 0.00 49 1029.7
20220122051830 26 52 0.0 0.0 0.00 0.00 0.00 46 1029.5
20220122050324 27 52 0.0 0.0 0.00 0.00 0.00 44 1029.5
20220122044835 28 52 0.0 0.0 0.00 0.00 0.00 43 1029.5
20220122043327 27 52 0.0 0.0 0.00 0.00 0.00 45 1029.4
20220122041821 27 52 0.0 0.0 0.00 0.00 0.00 46 1029.2
20220122040329 27 52 0.0 0.0 0.00 0.00 0.00 46 1029.0
20220122034824 27 52 0.0 0.0 0.00 0.00 0.00 46 1028.8
20220122033334 27 52 0.0 0.0 0.00 0.00 0.00 47 1028.7
20220122031830 27 52 0.0 0.0 0.00 0.00 0.00 46 1028.8
20220122030318 28 52 0.0 0.0 0.00 0.00 0.00 44 1028.8
20220122024830 28 52 0.0 0.0 0.00 0.00 0.00 45 1028.8
20220122023328 28 52 0.0 0.0 0.00 0.00 0.00 43 1028.8
20220122021818 29 52 0.0 0.0 0.00 0.00 0.00 42 1028.6
20220122020333 30 52 0.0 0.0 0.00 0.00 0.00 40 1028.4
20220122014826 30 52 0.0 0.0 0.00 0.00 0.00 40 1028.3
20220122013322 31 52 0.0 0.0 0.00 0.00 0.00 39 1028.3
20220122011835 32 52 0.0 0.0 0.00 0.00 0.00 38 1028.3
20220122010326 32 52 0.0 0.0 0.00 0.00 0.00 34 1028.2
20220122004818 32 52 0.0 0.0 0.00 0.00 0.00 34 1027.9
20220122003329 33 52 0.0 0.0 0.00 0.00 0.00 31 1027.7
20220122001824 34 52 0.0 0.0 0.00 0.00 0.00 29 1027.7
20220122000334 36 52 0.0 0.0 0.00 0.00 0.00 26 1027.3
20220121234828 38 52 0.0 0.0 0.00 0.00 0.00 25 1027.4
20220121233320 40 78 0.0 0.0 0.00 0.00 0.00 24 1027.2
20220121231828 40 24 0.0 0.0 0.00 0.00 0.00 23 1027.2
20220121230317 41 94 0.0 0.0 0.00 0.00 0.00 21 1027.1
20220121224826 42 218 0.0 2.0 0.00 0.00 0.00 21 1027.1
20220121223321 43 356 0.0 1.0 0.00 0.00 0.00 20 1027.3
20220121221831 43 160 0.0 0.0 0.00 0.00 0.00 20 1027.3
20220121220325 45 130 0.0 2.0 0.00 0.00 0.00 20 1027.5
20220121214817 44 8 0.0 2.0 0.00 0.00 0.00 20 1027.7
20220121213327 44 117 1.0 3.0 0.00 0.00 0.00 19 1027.9
20220121211818 45 201 1.0 2.0 0.00 0.00 0.00 17 1028.0
20220121210326 43 333 0.0 6.0 0.00 0.00 0.00 18 1028.2
20220121204822 43 34 0.0 0.0 0.00 0.00 0.00 19 1028.2
20220121203334 43 177 0.0 2.0 0.00 0.00 0.00 22 1028.1
20220121201831 42 174 1.0 4.0 0.00 0.00 0.00 24 1028.2
20220121200320 41 257 0.0 3.0 0.00 0.00 0.00 24 1028.3
20220121194834 41 30 0.0 2.0 0.00 0.00 0.00 21 1028.6
20220121193326 41 165 0.0 4.0 0.00 0.00 0.00 25 1028.8
20220121191835 40 82 0.0 5.0 0.00 0.00 0.00 27 1029.3
20220121190327 39 53 0.0 2.0 0.00 0.00 0.00 22 1029.5
20220121184819 38 16 0.0 0.0 0.00 0.00 0.00 26 1029.9
20220121183336 39 26 0.0 0.0 0.00 0.00 0.00 27 1030.3
20220121181825 38 129 1.0 4.0 0.00 0.00 0.00 30 1030.8
20220121180336 38 6 0.0 0.0 0.00 0.00 0.00 27 1031.1
20220121174825 36 200 0.0 1.0 0.00 0.00 0.00 30 1031.4
20220121173317 36 61 0.0 1.0 0.00 0.00 0.00 31 1031.5
20220121171832 34 342 0.0 2.0 0.00 0.00 0.00 31 1031.6
20220121170319 32 353 0.0 1.0 0.00 0.00 0.00 33 1031.8
20220121164835 31 58 0.0 3.0 0.00 0.00 0.00 35 1032.0
20220121163328 30 345 0.0 4.0 0.00 0.00 0.00 36 1031.7
20220121160317 27 104 1.0 3.0 0.00 0.00 0.00 40 1031.7
20220121154827 26 174 0.0 1.0 0.00 0.00 0.00 42 1031.8
20220121153323 25 87 0.0 0.0 0.00 0.00 0.00 44 1031.8
20220121151836 24 96 0.0 0.0 0.00 0.00 0.00 45 1031.8
20220121150329 23 37 0.0 0.0 0.00 0.00 0.00 47 1031.8
20220121144820 22 357 0.0 0.0 0.00 0.00 0.00 48 1031.6
20220121143332 20 38 0.0 0.0 0.00 0.00 0.00 47 1031.4
20220121140327 18 25 0.0 0.0 0.00 0.00 0.00 48 1031.2
20220121134820 18 27 0.0 0.0 0.00 0.00 0.00 48 1031.4
20220121131825 18 19 0.0 0.0 0.00 0.00 0.00 47 1031.1
20220121130331 19 359 0.0 0.0 0.00 0.00 0.00 46 1031.0
20220121124827 19 359 0.0 0.0 0.00 0.00 0.00 45 1031.0
20220121123336 20 20 0.0 0.0 0.00 0.00 0.00 44 1030.7
20220121121834 20 30 0.0 0.0 0.00 0.00 0.00 43 1030.4
20220121120323 21 39 0.0 0.0 0.00 0.00 0.00 43 1030.5
20220121114835 21 34 0.0 0.0 0.00 0.00 0.00 42 1030.7
20220121113330 22 40 0.0 0.0 0.00 0.00 0.00 42 1030.8
20220121111821 22 52 0.0 0.0 0.00 0.00 0.00 42 1030.8
20220121110336 23 32 0.0 0.0 0.00 0.00 0.00 41 1030.8
20220121104826 24 45 0.0 0.0 0.00 0.00 0.00 39 1030.9
20220121103318 25 39 0.0 0.0 0.00 0.00 0.00 38 1030.8
20220121101831 25 48 0.0 0.0 0.00 0.00 0.00 38 1031.0
20220121100321 25 40 0.0 1.0 0.00 0.00 0.00 37 1031.0
20220121094817 25 356 0.0 0.0 0.00 0.00 0.00 37 1031.1
20220121093330 25 20 0.0 4.0 0.00 0.00 0.00 36 1031.2
20220121091825 25 53 0.0 0.0 0.00 0.00 0.00 35 1031.3
20220121090335 25 22 1.0 3.0 0.00 0.00 0.00 35 1031.5
20220121084829 25 60 0.0 1.0 0.00 0.00 0.00 35 1031.5
20220121083321 26 11 0.0 1.0 0.00 0.00 0.00 34 1031.5
20220121081833 26 359 0.0 1.0 0.00 0.00 0.00 34 1031.6
20220121080327 26 44 0.0 1.0 0.00 0.00 0.00 34 1031.6
20220121074819 26 40 0.0 1.0 0.00 0.00 0.00 34 1031.6
20220121073334 27 65 0.0 1.0 0.00 0.00 0.00 34 1031.6
20220121071827 27 49 0.0 1.0 0.00 0.00 0.00 33 1031.6
20220121070318 27 28 0.0 1.0 0.00 0.00 0.00 32 1031.8
20220121064831 28 26 0.0 1.0 0.00 0.00 0.00 32 1031.8